sensor_id;sensor_type;location;lat;lon;timestamp;pressure;altitude;pressure_sealevel;temperature;humidity
54870;BME280;40756;-37.950;145.008;2023-02-13T00:01:40;101246.42;;;20.44;31.84
54870;BME280;40756;-37.950;145.008;2023-02-13T00:04:10;101244.52;;;20.79;31.00
54870;BME280;40756;-37.950;145.008;2023-02-13T00:06:39;101249.78;;;20.76;30.61
54870;BME280;40756;-37.950;145.008;2023-02-13T00:09:09;101242.92;;;20.61;30.05
54870;BME280;40756;-37.950;145.008;2023-02-13T00:11:38;101239.62;;;20.61;30.00
54870;BME280;40756;-37.950;145.008;2023-02-13T00:14:08;101243.63;;;20.85;31.23
54870;BME280;40756;-37.950;145.008;2023-02-13T00:16:37;101240.64;;;20.82;30.63
54870;BME280;40756;-37.950;145.008;2023-02-13T00:19:07;101247.24;;;20.33;29.88
54870;BME280;40756;-37.950;145.008;2023-02-13T00:21:36;101239.03;;;20.61;29.78
54870;BME280;40756;-37.950;145.008;2023-02-13T00:24:06;101241.87;;;20.90;29.80
54870;BME280;40756;-37.950;145.008;2023-02-13T00:26:36;101236.98;;;20.89;30.28
54870;BME280;40756;-37.950;145.008;2023-02-13T00:29:05;101236.81;;;20.56;31.03
54870;BME280;40756;-37.950;145.008;2023-02-13T00:31:35;101237.89;;;20.67;29.82
54870;BME280;40756;-37.950;145.008;2023-02-13T00:34:05;101238.83;;;20.26;30.38
54870;BME280;40756;-37.950;145.008;2023-02-13T00:36:34;101237.11;;;20.03;32.24
54870;BME280;40756;-37.950;145.008;2023-02-13T00:39:04;101239.59;;;20.36;33.30
54870;BME280;40756;-37.950;145.008;2023-02-13T00:41:33;101236.62;;;20.25;32.42
54870;BME280;40756;-37.950;145.008;2023-02-13T00:44:03;101234.49;;;20.09;34.06
54870;BME280;40756;-37.950;145.008;2023-02-13T00:46:32;101232.82;;;20.55;34.06
54870;BME280;40756;-37.950;145.008;2023-02-13T00:49:02;101232.44;;;20.84;33.02
54870;BME280;40756;-37.950;145.008;2023-02-13T00:51:31;101231.09;;;20.25;34.56
54870;BME280;40756;-37.950;145.008;2023-02-13T00:54:01;101235.56;;;20.14;34.74
54870;BME280;40756;-37.950;145.008;2023-02-13T00:56:31;101234.60;;;19.75;35.62
54870;BME280;40756;-37.950;145.008;2023-02-13T00:59:01;101231.57;;;20.50;35.04
54870;BME280;40756;-37.950;145.008;2023-02-13T01:01:30;101233.22;;;20.43;35.57
54870;BME280;40756;-37.950;145.008;2023-02-13T01:04:00;101232.32;;;20.23;35.12
54870;BME280;40756;-37.950;145.008;2023-02-13T01:06:29;101228.78;;;19.95;35.60
54870;BME280;40756;-37.950;145.008;2023-02-13T01:08:58;101233.92;;;20.08;35.06
54870;BME280;40756;-37.950;145.008;2023-02-13T01:11:28;101232.06;;;19.79;35.30
54870;BME280;40756;-37.950;145.008;2023-02-13T01:13:58;101232.11;;;19.27;35.81
54870;BME280;40756;-37.950;145.008;2023-02-13T01:16:27;101228.40;;;19.72;35.42
54870;BME280;40756;-37.950;145.008;2023-02-13T01:18:57;101226.83;;;20.15;35.14
54870;BME280;40756;-37.950;145.008;2023-02-13T01:21:26;101227.15;;;20.17;35.78
54870;BME280;40756;-37.950;145.008;2023-02-13T01:23:55;101224.51;;;19.85;35.50
54870;BME280;40756;-37.950;145.008;2023-02-13T01:26:25;101226.94;;;20.10;36.12
54870;BME280;40756;-37.950;145.008;2023-02-13T01:28:55;101227.98;;;19.94;35.80
54870;BME280;40756;-37.950;145.008;2023-02-13T01:31:25;101223.98;;;19.82;35.66
54870;BME280;40756;-37.950;145.008;2023-02-13T01:33:57;101230.02;;;19.97;35.54
54870;BME280;40756;-37.950;145.008;2023-02-13T01:36:27;101228.63;;;20.29;34.98
54870;BME280;40756;-37.950;145.008;2023-02-13T01:38:58;101227.84;;;20.02;35.47
54870;BME280;40756;-37.950;145.008;2023-02-13T01:41:27;101226.31;;;19.86;36.12
54870;BME280;40756;-37.950;145.008;2023-02-13T01:43:58;101228.75;;;19.77;35.68
54870;BME280;40756;-37.950;145.008;2023-02-13T01:46:30;101225.61;;;19.91;35.65
54870;BME280;40756;-37.950;145.008;2023-02-13T01:49:12;101219.28;;;20.30;35.47
54870;BME280;40756;-37.950;145.008;2023-02-13T01:51:43;101222.29;;;20.04;34.45
54870;BME280;40756;-37.950;145.008;2023-02-13T01:54:17;101220.72;;;20.23;34.02
54870;BME280;40756;-37.950;145.008;2023-02-13T01:56:50;101215.77;;;20.44;33.91
54870;BME280;40756;-37.950;145.008;2023-02-13T01:59:24;101216.03;;;20.86;32.95
54870;BME280;40756;-37.950;145.008;2023-02-13T02:01:56;101208.07;;;21.32;32.45
54870;BME280;40756;-37.950;145.008;2023-02-13T02:04:29;101203.07;;;21.42;32.62
54870;BME280;40756;-37.950;145.008;2023-02-13T02:07:05;101197.11;;;21.31;32.02
54870;BME280;40756;-37.950;145.008;2023-02-13T02:09:38;101196.75;;;21.61;32.33
54870;BME280;40756;-37.950;145.008;2023-02-13T02:12:12;101194.41;;;22.48;31.76
54870;BME280;40756;-37.950;145.008;2023-02-13T02:14:45;101197.09;;;21.81;31.67
54870;BME280;40756;-37.950;145.008;2023-02-13T02:17:15;101184.59;;;22.76;31.88
54870;BME280;40756;-37.950;145.008;2023-02-13T02:19:51;101187.19;;;22.80;30.60
54870;BME280;40756;-37.950;145.008;2023-02-13T02:22:57;101184.17;;;23.13;29.50
54870;BME280;40756;-37.950;145.008;2023-02-13T02:26:25;101185.25;;;22.97;28.44
54870;BME280;40756;-37.950;145.008;2023-02-13T02:29:18;101185.40;;;22.86;28.82
54870;BME280;40756;-37.950;145.008;2023-02-13T02:32:08;101187.07;;;22.64;28.91
54870;BME280;40756;-37.950;145.008;2023-02-13T02:34:48;101190.26;;;21.90;29.03
54870;BME280;40756;-37.950;145.008;2023-02-13T02:37:37;101187.50;;;22.37;28.86
54870;BME280;40756;-37.950;145.008;2023-02-13T02:40:21;101191.84;;;22.38;29.11
54870;BME280;40756;-37.950;145.008;2023-02-13T02:43:02;101194.49;;;21.80;29.48
54870;BME280;40756;-37.950;145.008;2023-02-13T02:45:39;101192.18;;;22.50;30.69
54870;BME280;40756;-37.950;145.008;2023-02-13T02:48:20;101188.32;;;22.15;30.22
54870;BME280;40756;-37.950;145.008;2023-02-13T02:50:56;101197.89;;;21.81;30.39
54870;BME280;40756;-37.950;145.008;2023-02-13T02:53:32;101188.79;;;22.79;30.04
54870;BME280;40756;-37.950;145.008;2023-02-13T02:56:10;101187.07;;;22.00;30.51
54870;BME280;40756;-37.950;145.008;2023-02-13T02:58:45;101185.96;;;22.68;30.22
54870;BME280;40756;-37.950;145.008;2023-02-13T03:01:19;101184.49;;;22.37;29.97
54870;BME280;40756;-37.950;145.008;2023-02-13T03:03:53;101186.31;;;22.13;30.54
54870;BME280;40756;-37.950;145.008;2023-02-13T03:06:29;101179.95;;;22.50;30.62
54870;BME280;40756;-37.950;145.008;2023-02-13T03:09:05;101185.06;;;21.99;31.07
54870;BME280;40756;-37.950;145.008;2023-02-13T03:11:38;101188.49;;;21.19;31.62
54870;BME280;40756;-37.950;145.008;2023-02-13T03:14:10;101187.08;;;21.27;32.09
54870;BME280;40756;-37.950;145.008;2023-02-13T03:16:42;101189.49;;;21.92;31.15
54870;BME280;40756;-37.950;145.008;2023-02-13T03:19:20;101190.20;;;21.95;30.36
54870;BME280;40756;-37.950;145.008;2023-02-13T03:21:54;101186.74;;;21.28;31.05
54870;BME280;40756;-37.950;145.008;2023-02-13T03:24:27;101185.50;;;21.90;31.17
54870;BME280;40756;-37.950;145.008;2023-02-13T03:27:08;101186.78;;;22.00;31.78
54870;BME280;40756;-37.950;145.008;2023-02-13T03:29:47;101187.63;;;21.80;30.70
54870;BME280;40756;-37.950;145.008;2023-02-13T03:32:24;101190.58;;;21.44;33.51
54870;BME280;40756;-37.950;145.008;2023-02-13T03:35:00;101190.47;;;21.71;33.66
54870;BME280;40756;-37.950;145.008;2023-02-13T03:37:36;101189.20;;;21.19;35.19
54870;BME280;40756;-37.950;145.008;2023-02-13T03:40:13;101193.12;;;20.98;38.13
54870;BME280;40756;-37.950;145.008;2023-02-13T03:42:47;101183.74;;;19.10;39.69
54870;BME280;40756;-37.950;145.008;2023-02-13T03:45:24;101184.78;;;20.80;39.19
54870;BME280;40756;-37.950;145.008;2023-02-13T03:47:57;101194.76;;;20.36;39.50
54870;BME280;40756;-37.950;145.008;2023-02-13T03:50:30;101180.96;;;21.31;38.90
54870;BME280;40756;-37.950;145.008;2023-02-13T03:53:04;101178.87;;;21.95;37.87
54870;BME280;40756;-37.950;145.008;2023-02-13T03:55:36;101179.97;;;22.56;36.51
54870;BME280;40756;-37.950;145.008;2023-02-13T03:58:10;101175.32;;;22.58;36.24
54870;BME280;40756;-37.950;145.008;2023-02-13T04:00:45;101168.83;;;22.73;35.99
54870;BME280;40756;-37.950;145.008;2023-02-13T04:03:21;101173.03;;;22.42;37.10
54870;BME280;40756;-37.950;145.008;2023-02-13T04:05:57;101167.47;;;21.97;37.12
54870;BME280;40756;-37.950;145.008;2023-02-13T04:08:29;101167.11;;;22.15;36.37
54870;BME280;40756;-37.950;145.008;2023-02-13T04:11:06;101158.34;;;23.23;34.58
54870;BME280;40756;-37.950;145.008;2023-02-13T04:13:42;101161.38;;;22.88;34.69
54870;BME280;40756;-37.950;145.008;2023-02-13T04:16:18;101163.33;;;22.66;34.13
54870;BME280;40756;-37.950;145.008;2023-02-13T04:18:50;101167.89;;;23.37;33.72
54870;BME280;40756;-37.950;145.008;2023-02-13T04:21:19;101168.46;;;23.20;33.64
54870;BME280;40756;-37.950;145.008;2023-02-13T04:23:49;101163.77;;;23.22;33.32
54870;BME280;40756;-37.950;145.008;2023-02-13T04:26:20;101158.15;;;23.20;33.21
54870;BME280;40756;-37.950;145.008;2023-02-13T04:28:51;101157.64;;;24.10;33.52
54870;BME280;40756;-37.950;145.008;2023-02-13T04:31:21;101156.02;;;24.07;32.88
54870;BME280;40756;-37.950;145.008;2023-02-13T04:33:51;101155.41;;;23.89;32.26
54870;BME280;40756;-37.950;145.008;2023-02-13T04:36:20;101158.76;;;22.32;33.66
54870;BME280;40756;-37.950;145.008;2023-02-13T04:38:50;101166.34;;;22.38;34.39
54870;BME280;40756;-37.950;145.008;2023-02-13T04:41:19;101153.90;;;22.39;34.83
54870;BME280;40756;-37.950;145.008;2023-02-13T04:43:48;101154.65;;;22.52;35.38
54870;BME280;40756;-37.950;145.008;2023-02-13T04:46:18;101158.32;;;21.21;35.75
54870;BME280;40756;-37.950;145.008;2023-02-13T04:48:47;101156.26;;;21.93;35.53
54870;BME280;40756;-37.950;145.008;2023-02-13T04:51:17;101155.82;;;22.48;35.59
54870;BME280;40756;-37.950;145.008;2023-02-13T04:53:46;101159.67;;;21.49;36.34
54870;BME280;40756;-37.950;145.008;2023-02-13T04:56:16;101159.19;;;22.00;35.73
54870;BME280;40756;-37.950;145.008;2023-02-13T04:58:46;101162.84;;;21.01;36.05
54870;BME280;40756;-37.950;145.008;2023-02-13T05:01:16;101167.10;;;21.45;35.66
54870;BME280;40756;-37.950;145.008;2023-02-13T05:03:46;101166.23;;;22.11;34.30
54870;BME280;40756;-37.950;145.008;2023-02-13T05:06:16;101163.73;;;21.91;34.08
54870;BME280;40756;-37.950;145.008;2023-02-13T05:08:46;101163.68;;;22.56;34.15
54870;BME280;40756;-37.950;145.008;2023-02-13T05:11:15;101160.93;;;22.02;32.57
54870;BME280;40756;-37.950;145.008;2023-02-13T05:13:44;101160.00;;;23.31;31.88
54870;BME280;40756;-37.950;145.008;2023-02-13T05:16:14;101157.62;;;21.98;32.75
54870;BME280;40756;-37.950;145.008;2023-02-13T05:18:43;101153.85;;;22.75;31.98
54870;BME280;40756;-37.950;145.008;2023-02-13T05:21:13;101150.34;;;22.98;32.54
54870;BME280;40756;-37.950;145.008;2023-02-13T05:23:42;101155.34;;;22.15;31.95
54870;BME280;40756;-37.950;145.008;2023-02-13T05:26:12;101154.49;;;21.95;32.60
54870;BME280;40756;-37.950;145.008;2023-02-13T05:28:41;101147.16;;;21.77;32.64
54870;BME280;40756;-37.950;145.008;2023-02-13T05:31:11;101141.11;;;21.85;33.14
54870;BME280;40756;-37.950;145.008;2023-02-13T05:33:40;101140.06;;;22.12;33.24
54870;BME280;40756;-37.950;145.008;2023-02-13T05:36:10;101142.31;;;22.06;32.38
54870;BME280;40756;-37.950;145.008;2023-02-13T05:38:39;101146.86;;;20.84;33.90
54870;BME280;40756;-37.950;145.008;2023-02-13T05:41:09;101144.98;;;21.00;34.80
54870;BME280;40756;-37.950;145.008;2023-02-13T05:43:38;101152.51;;;20.64;34.89
54870;BME280;40756;-37.950;145.008;2023-02-13T05:46:09;101146.53;;;21.34;34.85
54870;BME280;40756;-37.950;145.008;2023-02-13T05:48:39;101144.98;;;21.23;34.56
54870;BME280;40756;-37.950;145.008;2023-02-13T05:51:08;101146.22;;;21.15;34.71
54870;BME280;40756;-37.950;145.008;2023-02-13T05:53:38;101148.64;;;21.52;34.30
54870;BME280;40756;-37.950;145.008;2023-02-13T05:56:07;101146.55;;;21.68;33.83
54870;BME280;40756;-37.950;145.008;2023-02-13T05:58:37;101148.93;;;21.03;35.07
54870;BME280;40756;-37.950;145.008;2023-02-13T06:01:07;101149.34;;;20.89;35.10
54870;BME280;40756;-37.950;145.008;2023-02-13T06:03:37;101148.65;;;20.69;35.37
54870;BME280;40756;-37.950;145.008;2023-02-13T06:06:07;101155.05;;;20.53;36.07
54870;BME280;40756;-37.950;145.008;2023-02-13T06:08:36;101149.54;;;20.64;35.71
54870;BME280;40756;-37.950;145.008;2023-02-13T06:11:07;101149.53;;;21.36;35.27
54870;BME280;40756;-37.950;145.008;2023-02-13T06:13:36;101154.07;;;21.32;35.36
54870;BME280;40756;-37.950;145.008;2023-02-13T06:16:06;101146.20;;;21.64;35.37
54870;BME280;40756;-37.950;145.008;2023-02-13T06:18:37;101148.55;;;22.02;35.05
54870;BME280;40756;-37.950;145.008;2023-02-13T06:21:08;101147.66;;;21.71;34.35
54870;BME280;40756;-37.950;145.008;2023-02-13T06:23:38;101144.64;;;22.53;33.15
54870;BME280;40756;-37.950;145.008;2023-02-13T06:26:08;101144.21;;;22.81;33.58
54870;BME280;40756;-37.950;145.008;2023-02-13T06:28:37;101142.39;;;22.71;32.73
54870;BME280;40756;-37.950;145.008;2023-02-13T06:31:07;101140.54;;;22.37;32.10
54870;BME280;40756;-37.950;145.008;2023-02-13T06:33:36;101144.75;;;22.45;31.97
54870;BME280;40756;-37.950;145.008;2023-02-13T06:36:06;101143.94;;;22.42;31.99
54870;BME280;40756;-37.950;145.008;2023-02-13T06:38:36;101147.82;;;21.84;33.23
54870;BME280;40756;-37.950;145.008;2023-02-13T06:41:06;101151.93;;;22.08;33.19
54870;BME280;40756;-37.950;145.008;2023-02-13T06:43:35;101150.60;;;21.00;33.97
54870;BME280;40756;-37.950;145.008;2023-02-13T06:46:06;101153.68;;;21.45;34.38
54870;BME280;40756;-37.950;145.008;2023-02-13T06:48:35;101156.43;;;21.59;35.01
54870;BME280;40756;-37.950;145.008;2023-02-13T06:51:05;101155.55;;;20.98;34.47
54870;BME280;40756;-37.950;145.008;2023-02-13T06:53:34;101154.92;;;21.43;34.48
54870;BME280;40756;-37.950;145.008;2023-02-13T06:56:05;101159.41;;;21.72;34.44
54870;BME280;40756;-37.950;145.008;2023-02-13T06:58:35;101157.92;;;22.04;33.49
54870;BME280;40756;-37.950;145.008;2023-02-13T07:01:04;101160.65;;;21.46;33.42
54870;BME280;40756;-37.950;145.008;2023-02-13T07:03:34;101158.61;;;22.20;32.87
54870;BME280;40756;-37.950;145.008;2023-02-13T07:06:04;101160.95;;;22.06;33.07
54870;BME280;40756;-37.950;145.008;2023-02-13T07:08:33;101158.49;;;22.21;32.96
54870;BME280;40756;-37.950;145.008;2023-02-13T07:11:03;101164.80;;;22.16;33.22
54870;BME280;40756;-37.950;145.008;2023-02-13T07:13:33;101162.14;;;22.15;32.92
54870;BME280;40756;-37.950;145.008;2023-02-13T07:16:02;101160.72;;;22.14;32.65
54870;BME280;40756;-37.950;145.008;2023-02-13T07:18:31;101163.69;;;21.71;33.89
54870;BME280;40756;-37.950;145.008;2023-02-13T07:21:01;101162.35;;;22.40;33.55
54870;BME280;40756;-37.950;145.008;2023-02-13T07:23:30;101161.99;;;22.25;32.61
54870;BME280;40756;-37.950;145.008;2023-02-13T07:26:00;101161.73;;;21.72;33.27
54870;BME280;40756;-37.950;145.008;2023-02-13T07:28:30;101160.15;;;22.82;32.68
54870;BME280;40756;-37.950;145.008;2023-02-13T07:31:04;101156.12;;;23.01;32.58
54870;BME280;40756;-37.950;145.008;2023-02-13T07:33:33;101162.86;;;22.59;32.38
54870;BME280;40756;-37.950;145.008;2023-02-13T07:36:03;101168.42;;;21.84;33.25
54870;BME280;40756;-37.950;145.008;2023-02-13T07:38:33;101166.96;;;21.94;33.15
54870;BME280;40756;-37.950;145.008;2023-02-13T07:41:03;101171.14;;;21.45;33.26
54870;BME280;40756;-37.950;145.008;2023-02-13T07:43:33;101176.26;;;21.48;31.92
54870;BME280;40756;-37.950;145.008;2023-02-13T07:46:03;101177.39;;;20.83;32.16
54870;BME280;40756;-37.950;145.008;2023-02-13T07:48:33;101184.43;;;21.13;32.19
54870;BME280;40756;-37.950;145.008;2023-02-13T07:51:04;101181.02;;;21.33;31.91
54870;BME280;40756;-37.950;145.008;2023-02-13T07:53:33;101181.65;;;21.71;31.65
54870;BME280;40756;-37.950;145.008;2023-02-13T07:56:06;101184.44;;;21.33;32.11
54870;BME280;40756;-37.950;145.008;2023-02-13T07:58:36;101190.94;;;21.46;32.06
54870;BME280;40756;-37.950;145.008;2023-02-13T08:01:08;101188.86;;;21.49;32.53
54870;BME280;40756;-37.950;145.008;2023-02-13T08:03:39;101187.49;;;21.26;32.54
54870;BME280;40756;-37.950;145.008;2023-02-13T08:06:09;101192.61;;;21.50;32.51
54870;BME280;40756;-37.950;145.008;2023-02-13T08:08:39;101191.90;;;21.18;32.52
54870;BME280;40756;-37.950;145.008;2023-02-13T08:11:21;101198.32;;;20.48;33.04
54870;BME280;40756;-37.950;145.008;2023-02-13T08:13:52;101197.79;;;20.87;33.87
54870;BME280;40756;-37.950;145.008;2023-02-13T08:16:21;101202.11;;;20.90;34.29
54870;BME280;40756;-37.950;145.008;2023-02-13T08:18:50;101208.16;;;20.79;35.58
54870;BME280;40756;-37.950;145.008;2023-02-13T08:21:20;101207.46;;;20.94;35.99
54870;BME280;40756;-37.950;145.008;2023-02-13T08:23:49;101212.09;;;20.81;36.27
54870;BME280;40756;-37.950;145.008;2023-02-13T08:26:19;101215.22;;;20.34;36.38
54870;BME280;40756;-37.950;145.008;2023-02-13T08:28:49;101210.50;;;20.71;36.03
54870;BME280;40756;-37.950;145.008;2023-02-13T08:31:18;101221.99;;;20.97;35.39
54870;BME280;40756;-37.950;145.008;2023-02-13T08:33:47;101217.50;;;20.18;36.51
54870;BME280;40756;-37.950;145.008;2023-02-13T08:36:17;101224.37;;;20.46;36.44
54870;BME280;40756;-37.950;145.008;2023-02-13T08:38:48;101222.17;;;20.22;36.80
54870;BME280;40756;-37.950;145.008;2023-02-13T08:41:17;101222.48;;;19.66;37.69
54870;BME280;40756;-37.950;145.008;2023-02-13T08:43:47;101223.09;;;19.48;37.94
54870;BME280;40756;-37.950;145.008;2023-02-13T08:46:16;101228.74;;;19.61;38.00
54870;BME280;40756;-37.950;145.008;2023-02-13T08:48:46;101231.38;;;19.70;38.33
54870;BME280;40756;-37.950;145.008;2023-02-13T08:51:15;101234.33;;;19.54;37.99
54870;BME280;40756;-37.950;145.008;2023-02-13T08:53:45;101233.61;;;19.57;38.45
54870;BME280;40756;-37.950;145.008;2023-02-13T08:56:14;101236.70;;;19.58;39.14
54870;BME280;40756;-37.950;145.008;2023-02-13T08:58:46;101240.56;;;19.04;39.18
54870;BME280;40756;-37.950;145.008;2023-02-13T09:01:16;101243.61;;;18.90;39.35
54870;BME280;40756;-37.950;145.008;2023-02-13T09:03:46;101242.84;;;19.17;39.09
54870;BME280;40756;-37.950;145.008;2023-02-13T09:06:16;101239.58;;;19.23;39.43
54870;BME280;40756;-37.950;145.008;2023-02-13T09:08:46;101242.15;;;19.12;39.12
54870;BME280;40756;-37.950;145.008;2023-02-13T09:11:16;101243.77;;;19.38;38.60
54870;BME280;40756;-37.950;145.008;2023-02-13T09:13:45;101242.76;;;19.07;39.94
54870;BME280;40756;-37.950;145.008;2023-02-13T09:16:15;101246.50;;;18.85;40.81
54870;BME280;40756;-37.950;145.008;2023-02-13T09:18:47;101246.54;;;18.81;40.66
54870;BME280;40756;-37.950;145.008;2023-02-13T09:21:18;101250.37;;;18.72;40.74
54870;BME280;40756;-37.950;145.008;2023-02-13T09:23:48;101252.41;;;18.70;40.76
54870;BME280;40756;-37.950;145.008;2023-02-13T09:26:18;101255.02;;;18.37;40.27
54870;BME280;40756;-37.950;145.008;2023-02-13T09:28:48;101260.22;;;18.68;40.11
54870;BME280;40756;-37.950;145.008;2023-02-13T09:31:19;101256.85;;;18.54;40.59
54870;BME280;40756;-37.950;145.008;2023-02-13T09:33:49;101257.45;;;18.85;40.82
54870;BME280;40756;-37.950;145.008;2023-02-13T09:36:21;101258.66;;;18.81;40.90
54870;BME280;40756;-37.950;145.008;2023-02-13T09:38:54;101257.44;;;18.82;40.96
54870;BME280;40756;-37.950;145.008;2023-02-13T09:41:25;101261.61;;;18.70;40.60
54870;BME280;40756;-37.950;145.008;2023-02-13T09:43:59;101265.62;;;18.79;40.69
54870;BME280;40756;-37.950;145.008;2023-02-13T09:46:32;101267.14;;;18.25;41.01
54870;BME280;40756;-37.950;145.008;2023-02-13T09:49:06;101270.11;;;18.68;40.37
54870;BME280;40756;-37.950;145.008;2023-02-13T09:51:36;101273.50;;;18.65;39.84
54870;BME280;40756;-37.950;145.008;2023-02-13T09:54:10;101274.50;;;18.84;39.68
54870;BME280;40756;-37.950;145.008;2023-02-13T09:56:49;101276.64;;;19.05;39.75
54870;BME280;40756;-37.950;145.008;2023-02-13T09:59:34;101280.93;;;19.06;39.34
54870;BME280;40756;-37.950;145.008;2023-02-13T10:02:24;101282.10;;;19.30;38.82
54870;BME280;40756;-37.950;145.008;2023-02-13T10:05:07;101282.66;;;18.96;38.65
54870;BME280;40756;-37.950;145.008;2023-02-13T10:07:45;101289.13;;;18.43;39.41
54870;BME280;40756;-37.950;145.008;2023-02-13T10:10:24;101290.16;;;18.25;39.95
54870;BME280;40756;-37.950;145.008;2023-02-13T10:13:07;101291.90;;;18.59;39.90
54870;BME280;40756;-37.950;145.008;2023-02-13T10:15:50;101293.66;;;18.46;39.81
54870;BME280;40756;-37.950;145.008;2023-02-13T10:18:24;101298.09;;;18.83;40.20
54870;BME280;40756;-37.950;145.008;2023-02-13T10:20:58;101302.92;;;18.25;40.97
54870;BME280;40756;-37.950;145.008;2023-02-13T10:23:32;101306.57;;;18.37;41.36
54870;BME280;40756;-37.950;145.008;2023-02-13T10:26:06;101309.45;;;18.15;41.12
54870;BME280;40756;-37.950;145.008;2023-02-13T10:28:39;101308.52;;;18.74;40.43
54870;BME280;40756;-37.950;145.008;2023-02-13T10:31:13;101310.09;;;18.46;40.70
54870;BME280;40756;-37.950;145.008;2023-02-13T10:33:49;101312.25;;;18.78;40.00
54870;BME280;40756;-37.950;145.008;2023-02-13T10:36:22;101311.97;;;18.96;40.05
54870;BME280;40756;-37.950;145.008;2023-02-13T10:38:58;101313.84;;;18.34;40.22
54870;BME280;40756;-37.950;145.008;2023-02-13T10:41:41;101315.59;;;18.82;40.55
54870;BME280;40756;-37.950;145.008;2023-02-13T10:44:25;101319.77;;;18.70;40.72
54870;BME280;40756;-37.950;145.008;2023-02-13T10:47:06;101318.33;;;18.46;40.35
54870;BME280;40756;-37.950;145.008;2023-02-13T10:49:50;101320.51;;;18.57;40.53
54870;BME280;40756;-37.950;145.008;2023-02-13T10:52:36;101322.51;;;18.29;40.65
54870;BME280;40756;-37.950;145.008;2023-02-13T10:55:21;101322.38;;;18.69;40.83
54870;BME280;40756;-37.950;145.008;2023-02-13T10:58:05;101324.52;;;18.64;40.62
54870;BME280;40756;-37.950;145.008;2023-02-13T11:00:41;101326.17;;;18.63;40.87
54870;BME280;40756;-37.950;145.008;2023-02-13T11:03:18;101325.13;;;18.72;40.68
54870;BME280;40756;-37.950;145.008;2023-02-13T11:05:50;101323.44;;;18.53;41.24
54870;BME280;40756;-37.950;145.008;2023-02-13T11:08:23;101328.13;;;18.79;40.96
54870;BME280;40756;-37.950;145.008;2023-02-13T11:10:54;101331.39;;;18.88;40.88
54870;BME280;40756;-37.950;145.008;2023-02-13T11:13:25;101335.64;;;18.61;41.30
54870;BME280;40756;-37.950;145.008;2023-02-13T11:16:03;101336.24;;;18.62;41.04
54870;BME280;40756;-37.950;145.008;2023-02-13T11:18:36;101335.07;;;18.60;40.81
54870;BME280;40756;-37.950;145.008;2023-02-13T11:21:19;101337.00;;;18.56;41.24
54870;BME280;40756;-37.950;145.008;2023-02-13T11:23:52;101334.90;;;18.29;41.15
54870;BME280;40756;-37.950;145.008;2023-02-13T11:26:25;101331.89;;;18.26;41.53
54870;BME280;40756;-37.950;145.008;2023-02-13T11:28:59;101333.95;;;18.50;41.02
54870;BME280;40756;-37.950;145.008;2023-02-13T11:31:30;101335.99;;;17.93;40.93
54870;BME280;40756;-37.950;145.008;2023-02-13T11:34:22;101333.28;;;18.32;40.27
54870;BME280;40756;-37.950;145.008;2023-02-13T11:36:54;101332.02;;;18.48;40.31
54870;BME280;40756;-37.950;145.008;2023-02-13T11:39:36;101330.21;;;18.42;40.37
54870;BME280;40756;-37.950;145.008;2023-02-13T11:42:13;101325.06;;;18.40;40.29
54870;BME280;40756;-37.950;145.008;2023-02-13T11:44:50;101325.97;;;18.58;40.13
54870;BME280;40756;-37.950;145.008;2023-02-13T11:47:33;101324.44;;;18.60;40.02
54870;BME280;40756;-37.950;145.008;2023-02-13T11:50:05;101322.67;;;18.20;40.68
54870;BME280;40756;-37.950;145.008;2023-02-13T11:52:36;101321.65;;;18.30;40.94
54870;BME280;40756;-37.950;145.008;2023-02-13T11:55:23;101320.36;;;18.14;40.92
54870;BME280;40756;-37.950;145.008;2023-02-13T11:57:57;101318.75;;;18.22;40.95
54870;BME280;40756;-37.950;145.008;2023-02-13T12:00:32;101316.66;;;18.51;41.21
54870;BME280;40756;-37.950;145.008;2023-02-13T12:03:02;101313.07;;;18.34;41.06
54870;BME280;40756;-37.950;145.008;2023-02-13T12:06:13;101311.38;;;18.35;41.09
54870;BME280;40756;-37.950;145.008;2023-02-13T12:08:46;101312.94;;;18.04;41.27
54870;BME280;40756;-37.950;145.008;2023-02-13T12:11:23;101312.19;;;18.39;41.10
54870;BME280;40756;-37.950;145.008;2023-02-13T12:13:57;101308.41;;;18.45;40.86
54870;BME280;40756;-37.950;145.008;2023-02-13T12:16:30;101307.87;;;18.46;40.76
54870;BME280;40756;-37.950;145.008;2023-02-13T12:19:05;101305.94;;;18.47;40.92
54870;BME280;40756;-37.950;145.008;2023-02-13T12:21:46;101309.08;;;18.26;40.67
54870;BME280;40756;-37.950;145.008;2023-02-13T12:24:31;101306.48;;;18.44;40.65
54870;BME280;40756;-37.950;145.008;2023-02-13T12:27:11;101304.03;;;18.46;40.84
54870;BME280;40756;-37.950;145.008;2023-02-13T12:30:13;101302.06;;;18.41;40.88
54870;BME280;40756;-37.950;145.008;2023-02-13T12:32:56;101301.05;;;18.05;41.22
54870;BME280;40756;-37.950;145.008;2023-02-13T12:35:39;101300.23;;;18.04;41.29
54870;BME280;40756;-37.950;145.008;2023-02-13T12:38:21;101297.71;;;18.07;41.64
54870;BME280;40756;-37.950;145.008;2023-02-13T12:41:13;101299.10;;;17.81;41.89
54870;BME280;40756;-37.950;145.008;2023-02-13T12:44:01;101298.41;;;18.13;41.65
54870;BME280;40756;-37.950;145.008;2023-02-13T12:46:39;101301.23;;;18.16;41.44
54870;BME280;40756;-37.950;145.008;2023-02-13T12:49:30;101302.78;;;17.74;41.90
54870;BME280;40756;-37.950;145.008;2023-02-13T12:52:17;101299.87;;;18.04;41.78